Main page
METAR-TAF:

METAR-TAF

Airports :

Tangier Ibn Battouta Airport

Tangier, Morocco

latitude: 35-44N, longitude: 005-54W, elevation: 19 m

Current weather observation

The report was made 17 minutes ago, at 19:00 UTC
Wind 13 kt from the East/Northeast
Temperature 14°C
Humidity 72%
Pressure 1028 hPa
Visibility 10 km or more
no clouds below 1500 m and no cumulonimbus

METAR: GMTT 031900Z 06013KT CAVOK 14/09 Q1028 NOSIG

Time: 20:17 (19:17 UTC)

Forecast

The report was made 2 hours and 17 minutes ago, at 17:00 UTC
Forecast valid from 03 at 18 UTC to 04 at 24 UTC
Wind 12 kt from the East
Visibility 10 km or more
no clouds below 1500 m and no cumulonimbus

TAF: GMTT 031700Z 0318/0424 08012KT CAVOK

Weather observations and forecasts of more than 4000 airports (METAR and TAF reports).

The available stations are represented by yellow and red dots on the map.

Hover mouse over dot to see the name of the station.

Then click to see weather observations and forecasts.

To change the map : click on the green buttons with a black cross to zoom in, on the green button with a dash to zoom out, or on the green arrows for adjacent maps.


METAR-TAF: